sensor_id;sensor_type;location;lat;lon;timestamp;P1;durP1;ratioP1;P2;durP2;ratioP2
52576;SDS011;38469;53.562;10.048;2023-06-26T00:01:01;14.40;;;13.05;;
52576;SDS011;38469;53.562;10.048;2023-06-26T00:03:27;13.93;;;12.52;;
52576;SDS011;38469;53.562;10.048;2023-06-26T00:05:54;16.13;;;13.07;;
52576;SDS011;38469;53.562;10.048;2023-06-26T00:08:25;14.23;;;12.80;;
52576;SDS011;38469;53.562;10.048;2023-06-26T00:10:52;14.00;;;12.50;;
52576;SDS011;38469;53.562;10.048;2023-06-26T00:13:20;15.15;;;12.50;;
52576;SDS011;38469;53.562;10.048;2023-06-26T00:15:46;15.13;;;13.63;;
52576;SDS011;38469;53.562;10.048;2023-06-26T00:18:13;14.30;;;12.85;;
52576;SDS011;38469;53.562;10.048;2023-06-26T00:20:39;13.52;;;12.23;;
52576;SDS011;38469;53.562;10.048;2023-06-26T00:23:05;13.57;;;12.40;;
52576;SDS011;38469;53.562;10.048;2023-06-26T00:25:32;13.85;;;12.55;;
52576;SDS011;38469;53.562;10.048;2023-06-26T00:27:59;14.93;;;13.52;;
52576;SDS011;38469;53.562;10.048;2023-06-26T00:30:27;14.90;;;13.55;;
52576;SDS011;38469;53.562;10.048;2023-06-26T00:32:54;15.63;;;14.10;;
52576;SDS011;38469;53.562;10.048;2023-06-26T00:35:20;14.38;;;12.98;;
52576;SDS011;38469;53.562;10.048;2023-06-26T00:37:46;15.15;;;13.65;;
52576;SDS011;38469;53.562;10.048;2023-06-26T00:40:13;14.27;;;12.98;;
52576;SDS011;38469;53.562;10.048;2023-06-26T00:42:39;14.75;;;13.25;;
52576;SDS011;38469;53.562;10.048;2023-06-26T00:45:06;14.23;;;12.63;;
52576;SDS011;38469;53.562;10.048;2023-06-26T00:47:34;14.98;;;13.23;;
52576;SDS011;38469;53.562;10.048;2023-06-26T00:50:00;13.88;;;12.63;;
52576;SDS011;38469;53.562;10.048;2023-06-26T00:52:27;15.73;;;13.55;;
52576;SDS011;38469;53.562;10.048;2023-06-26T00:54:54;14.98;;;13.38;;
52576;SDS011;38469;53.562;10.048;2023-06-26T00:57:21;14.13;;;12.60;;
52576;SDS011;38469;53.562;10.048;2023-06-26T00:59:48;13.85;;;12.65;;
52576;SDS011;38469;53.562;10.048;2023-06-26T01:02:14;13.75;;;12.45;;
52576;SDS011;38469;53.562;10.048;2023-06-26T01:04:44;14.38;;;12.88;;
52576;SDS011;38469;53.562;10.048;2023-06-26T01:07:11;14.52;;;13.07;;
52576;SDS011;38469;53.562;10.048;2023-06-26T01:09:39;15.40;;;13.38;;
52576;SDS011;38469;53.562;10.048;2023-06-26T01:15:27;14.05;;;12.65;;
52576;SDS011;38469;53.562;10.048;2023-06-26T01:17:54;14.52;;;13.10;;
52576;SDS011;38469;53.562;10.048;2023-06-26T01:20:26;14.57;;;13.18;;
52576;SDS011;38469;53.562;10.048;2023-06-26T01:22:56;14.43;;;13.13;;
52576;SDS011;38469;53.562;10.048;2023-06-26T01:25:33;15.13;;;13.60;;
52576;SDS011;38469;53.562;10.048;2023-06-26T01:28:06;14.57;;;13.23;;
52576;SDS011;38469;53.562;10.048;2023-06-26T01:30:34;14.73;;;13.32;;
52576;SDS011;38469;53.562;10.048;2023-06-26T01:33:02;15.40;;;13.85;;
52576;SDS011;38469;53.562;10.048;2023-06-26T01:35:30;15.80;;;14.20;;
52576;SDS011;38469;53.562;10.048;2023-06-26T01:38:10;14.73;;;13.32;;
52576;SDS011;38469;53.562;10.048;2023-06-26T01:40:38;14.43;;;12.80;;
52576;SDS011;38469;53.562;10.048;2023-06-26T01:43:04;15.45;;;13.88;;
52576;SDS011;38469;53.562;10.048;2023-06-26T01:45:35;15.00;;;13.60;;
52576;SDS011;38469;53.562;10.048;2023-06-26T01:48:03;15.00;;;13.60;;
52576;SDS011;38469;53.562;10.048;2023-06-26T01:50:32;15.10;;;13.43;;
52576;SDS011;38469;53.562;10.048;2023-06-26T01:53:02;15.43;;;13.82;;
52576;SDS011;38469;53.562;10.048;2023-06-26T01:55:32;15.23;;;13.82;;
52576;SDS011;38469;53.562;10.048;2023-06-26T01:58:06;15.95;;;14.52;;
52576;SDS011;38469;53.562;10.048;2023-06-26T02:00:33;15.52;;;13.48;;
52576;SDS011;38469;53.562;10.048;2023-06-26T02:03:00;15.02;;;13.63;;
52576;SDS011;38469;53.562;10.048;2023-06-26T02:05:28;14.93;;;13.50;;
52576;SDS011;38469;53.562;10.048;2023-06-26T02:07:55;14.55;;;13.18;;
52576;SDS011;38469;53.562;10.048;2023-06-26T02:10:22;14.35;;;12.90;;
52576;SDS011;38469;53.562;10.048;2023-06-26T02:12:48;13.73;;;12.32;;
52576;SDS011;38469;53.562;10.048;2023-06-26T02:15:16;14.60;;;13.15;;
52576;SDS011;38469;53.562;10.048;2023-06-26T02:17:43;14.57;;;13.07;;
52576;SDS011;38469;53.562;10.048;2023-06-26T02:20:13;14.38;;;12.88;;
52576;SDS011;38469;53.562;10.048;2023-06-26T02:22:40;14.32;;;12.30;;
52576;SDS011;38469;53.562;10.048;2023-06-26T02:25:07;13.60;;;12.30;;
52576;SDS011;38469;53.562;10.048;2023-06-26T02:27:34;14.50;;;12.70;;
52576;SDS011;38469;53.562;10.048;2023-06-26T02:30:00;13.88;;;12.10;;
52576;SDS011;38469;53.562;10.048;2023-06-26T02:32:28;13.68;;;12.38;;
52576;SDS011;38469;53.562;10.048;2023-06-26T02:34:55;13.38;;;12.18;;
52576;SDS011;38469;53.562;10.048;2023-06-26T02:37:21;13.77;;;12.38;;
52576;SDS011;38469;53.562;10.048;2023-06-26T02:39:48;13.85;;;12.55;;
52576;SDS011;38469;53.562;10.048;2023-06-26T02:42:14;13.77;;;12.10;;
52576;SDS011;38469;53.562;10.048;2023-06-26T02:44:40;13.80;;;12.40;;
52576;SDS011;38469;53.562;10.048;2023-06-26T02:47:07;15.10;;;11.95;;
52576;SDS011;38469;53.562;10.048;2023-06-26T02:49:35;12.85;;;11.57;;
52576;SDS011;38469;53.562;10.048;2023-06-26T02:52:01;13.02;;;11.82;;
52576;SDS011;38469;53.562;10.048;2023-06-26T02:54:28;13.48;;;12.18;;
52576;SDS011;38469;53.562;10.048;2023-06-26T02:56:54;12.85;;;11.65;;
52576;SDS011;38469;53.562;10.048;2023-06-26T02:59:20;11.85;;;10.65;;
52576;SDS011;38469;53.562;10.048;2023-06-26T03:01:47;12.70;;;11.50;;
52576;SDS011;38469;53.562;10.048;2023-06-26T03:04:14;12.32;;;11.07;;
52576;SDS011;38469;53.562;10.048;2023-06-26T03:06:44;12.50;;;11.30;;
52576;SDS011;38469;53.562;10.048;2023-06-26T03:09:10;12.18;;;11.07;;
52576;SDS011;38469;53.562;10.048;2023-06-26T03:11:36;12.82;;;11.52;;
52576;SDS011;38469;53.562;10.048;2023-06-26T03:14:03;11.80;;;10.70;;
52576;SDS011;38469;53.562;10.048;2023-06-26T03:16:29;13.63;;;11.50;;
52576;SDS011;38469;53.562;10.048;2023-06-26T03:18:56;12.52;;;11.15;;
52576;SDS011;38469;53.562;10.048;2023-06-26T03:21:22;11.90;;;10.70;;
52576;SDS011;38469;53.562;10.048;2023-06-26T03:23:50;11.73;;;10.07;;
52576;SDS011;38469;53.562;10.048;2023-06-26T03:26:16;11.85;;;10.55;;
52576;SDS011;38469;53.562;10.048;2023-06-26T03:28:43;12.55;;;11.27;;
52576;SDS011;38469;53.562;10.048;2023-06-26T03:31:09;15.40;;;10.43;;
52576;SDS011;38469;53.562;10.048;2023-06-26T03:33:37;11.45;;;9.77;;
52576;SDS011;38469;53.562;10.048;2023-06-26T03:36:04;11.60;;;10.32;;
52576;SDS011;38469;53.562;10.048;2023-06-26T03:38:31;11.02;;;9.95;;
52576;SDS011;38469;53.562;10.048;2023-06-26T03:40:58;13.13;;;10.75;;
52576;SDS011;38469;53.562;10.048;2023-06-26T03:43:25;14.75;;;9.82;;
52576;SDS011;38469;53.562;10.048;2023-06-26T03:45:51;11.93;;;10.63;;
52576;SDS011;38469;53.562;10.048;2023-06-26T03:48:18;14.20;;;10.88;;
52576;SDS011;38469;53.562;10.048;2023-06-26T03:50:44;14.30;;;10.90;;
52576;SDS011;38469;53.562;10.048;2023-06-26T03:53:11;11.93;;;10.70;;
52576;SDS011;38469;53.562;10.048;2023-06-26T03:55:37;11.80;;;10.60;;
52576;SDS011;38469;53.562;10.048;2023-06-26T03:58:05;13.73;;;10.60;;
52576;SDS011;38469;53.562;10.048;2023-06-26T04:00:32;11.88;;;10.27;;
52576;SDS011;38469;53.562;10.048;2023-06-26T04:02:58;14.40;;;10.75;;
52576;SDS011;38469;53.562;10.048;2023-06-26T04:05:24;12.75;;;10.38;;
52576;SDS011;38469;53.562;10.048;2023-06-26T04:07:51;12.65;;;10.43;;
52576;SDS011;38469;53.562;10.048;2023-06-26T04:10:18;13.93;;;10.70;;
52576;SDS011;38469;53.562;10.048;2023-06-26T04:12:45;13.02;;;10.57;;
52576;SDS011;38469;53.562;10.048;2023-06-26T04:15:13;15.45;;;10.13;;
52576;SDS011;38469;53.562;10.048;2023-06-26T04:17:40;11.30;;;10.05;;
52576;SDS011;38469;53.562;10.048;2023-06-26T04:20:07;14.75;;;10.10;;
52576;SDS011;38469;53.562;10.048;2023-06-26T04:22:34;11.40;;;10.23;;
52576;SDS011;38469;53.562;10.048;2023-06-26T04:25:01;13.13;;;10.77;;
52576;SDS011;38469;53.562;10.048;2023-06-26T04:27:29;11.90;;;10.00;;
52576;SDS011;38469;53.562;10.048;2023-06-26T04:29:56;13.55;;;9.60;;
52576;SDS011;38469;53.562;10.048;2023-06-26T04:32:24;12.65;;;9.23;;
52576;SDS011;38469;53.562;10.048;2023-06-26T04:34:50;15.60;;;10.55;;
52576;SDS011;38469;53.562;10.048;2023-06-26T04:37:16;10.68;;;9.52;;
52576;SDS011;38469;53.562;10.048;2023-06-26T04:39:43;13.32;;;9.82;;
52576;SDS011;38469;53.562;10.048;2023-06-26T04:42:09;12.48;;;9.95;;
52576;SDS011;38469;53.562;10.048;2023-06-26T04:44:37;11.82;;;10.60;;
52576;SDS011;38469;53.562;10.048;2023-06-26T04:47:03;17.55;;;9.57;;
52576;SDS011;38469;53.562;10.048;2023-06-26T04:49:31;12.82;;;9.60;;
52576;SDS011;38469;53.562;10.048;2023-06-26T04:51:58;13.52;;;10.23;;
52576;SDS011;38469;53.562;10.048;2023-06-26T04:54:25;13.27;;;8.85;;
52576;SDS011;38469;53.562;10.048;2023-06-26T04:56:52;11.93;;;9.75;;
52576;SDS011;38469;53.562;10.048;2023-06-26T04:59:19;13.82;;;9.52;;
52576;SDS011;38469;53.562;10.048;2023-06-26T05:01:45;13.60;;;9.90;;
52576;SDS011;38469;53.562;10.048;2023-06-26T05:04:13;13.77;;;9.30;;
52576;SDS011;38469;53.562;10.048;2023-06-26T05:06:43;9.93;;;8.90;;
52576;SDS011;38469;53.562;10.048;2023-06-26T05:09:10;11.70;;;9.55;;
52576;SDS011;38469;53.562;10.048;2023-06-26T05:11:36;12.82;;;9.80;;
52576;SDS011;38469;53.562;10.048;2023-06-26T05:14:03;12.95;;;9.30;;
52576;SDS011;38469;53.562;10.048;2023-06-26T05:16:32;11.80;;;8.85;;
52576;SDS011;38469;53.562;10.048;2023-06-26T05:18:58;15.50;;;9.70;;
52576;SDS011;38469;53.562;10.048;2023-06-26T05:21:25;12.48;;;9.40;;
52576;SDS011;38469;53.562;10.048;2023-06-26T05:23:53;12.32;;;8.75;;
52576;SDS011;38469;53.562;10.048;2023-06-26T05:26:22;13.27;;;8.73;;
52576;SDS011;38469;53.562;10.048;2023-06-26T05:28:49;11.07;;;8.85;;
52576;SDS011;38469;53.562;10.048;2023-06-26T05:31:16;9.52;;;8.63;;
52576;SDS011;38469;53.562;10.048;2023-06-26T05:33:43;10.13;;;8.85;;
52576;SDS011;38469;53.562;10.048;2023-06-26T05:36:11;10.13;;;8.85;;
52576;SDS011;38469;53.562;10.048;2023-06-26T05:38:39;9.13;;;8.30;;
52576;SDS011;38469;53.562;10.048;2023-06-26T05:41:07;13.68;;;9.15;;
52576;SDS011;38469;53.562;10.048;2023-06-26T05:43:34;9.88;;;8.90;;
52576;SDS011;38469;53.562;10.048;2023-06-26T05:46:00;9.32;;;8.23;;
52576;SDS011;38469;53.562;10.048;2023-06-26T05:48:27;14.63;;;8.23;;
52576;SDS011;38469;53.562;10.048;2023-06-26T05:50:54;11.10;;;9.18;;
52576;SDS011;38469;53.562;10.048;2023-06-26T05:53:21;10.52;;;8.25;;
52576;SDS011;38469;53.562;10.048;2023-06-26T05:55:48;11.05;;;8.23;;
52576;SDS011;38469;53.562;10.048;2023-06-26T05:58:16;9.15;;;8.25;;
52576;SDS011;38469;53.562;10.048;2023-06-26T06:00:43;8.88;;;7.97;;
52576;SDS011;38469;53.562;10.048;2023-06-26T06:03:10;11.38;;;8.18;;
52576;SDS011;38469;53.562;10.048;2023-06-26T06:05:36;9.45;;;8.02;;
52576;SDS011;38469;53.562;10.048;2023-06-26T06:08:03;13.77;;;8.73;;
52576;SDS011;38469;53.562;10.048;2023-06-26T06:10:30;8.98;;;7.90;;
52576;SDS011;38469;53.562;10.048;2023-06-26T06:12:56;12.93;;;7.85;;
52576;SDS011;38469;53.562;10.048;2023-06-26T06:15:24;10.15;;;7.60;;
52576;SDS011;38469;53.562;10.048;2023-06-26T06:17:50;11.40;;;7.80;;
52576;SDS011;38469;53.562;10.048;2023-06-26T06:20:17;9.15;;;7.32;;
52576;SDS011;38469;53.562;10.048;2023-06-26T06:22:44;8.25;;;7.43;;
52576;SDS011;38469;53.562;10.048;2023-06-26T06:25:11;9.82;;;7.80;;
52576;SDS011;38469;53.562;10.048;2023-06-26T06:27:37;11.52;;;7.63;;
52576;SDS011;38469;53.562;10.048;2023-06-26T06:30:04;11.52;;;6.85;;
52576;SDS011;38469;53.562;10.048;2023-06-26T06:32:33;8.02;;;7.07;;
52576;SDS011;38469;53.562;10.048;2023-06-26T06:35:00;9.95;;;6.90;;
52576;SDS011;38469;53.562;10.048;2023-06-26T06:37:33;7.83;;;6.57;;
52576;SDS011;38469;53.562;10.048;2023-06-26T06:40:00;9.75;;;6.88;;
52576;SDS011;38469;53.562;10.048;2023-06-26T06:42:26;8.40;;;6.65;;
52576;SDS011;38469;53.562;10.048;2023-06-26T06:44:53;8.82;;;6.57;;
52576;SDS011;38469;53.562;10.048;2023-06-26T06:47:19;7.68;;;6.97;;
52576;SDS011;38469;53.562;10.048;2023-06-26T06:49:47;6.93;;;6.22;;
52576;SDS011;38469;53.562;10.048;2023-06-26T06:52:13;6.57;;;5.97;;
52576;SDS011;38469;53.562;10.048;2023-06-26T06:54:52;6.93;;;6.25;;
52576;SDS011;38469;53.562;10.048;2023-06-26T06:57:19;8.25;;;6.30;;
52576;SDS011;38469;53.562;10.048;2023-06-26T06:59:46;6.70;;;6.03;;
52576;SDS011;38469;53.562;10.048;2023-06-26T07:02:13;9.52;;;6.35;;
52576;SDS011;38469;53.562;10.048;2023-06-26T07:04:40;10.73;;;5.95;;
52576;SDS011;38469;53.562;10.048;2023-06-26T07:07:08;9.55;;;6.05;;
52576;SDS011;38469;53.562;10.048;2023-06-26T07:09:34;6.63;;;5.95;;
52576;SDS011;38469;53.562;10.048;2023-06-26T07:12:01;8.70;;;5.63;;
52576;SDS011;38469;53.562;10.048;2023-06-26T07:14:28;6.97;;;6.28;;
52576;SDS011;38469;53.562;10.048;2023-06-26T07:16:55;7.65;;;5.85;;
52576;SDS011;38469;53.562;10.048;2023-06-26T07:19:21;6.35;;;5.75;;
52576;SDS011;38469;53.562;10.048;2023-06-26T07:21:47;7.53;;;5.78;;
52576;SDS011;38469;53.562;10.048;2023-06-26T07:24:15;6.93;;;5.20;;
52576;SDS011;38469;53.562;10.048;2023-06-26T07:26:42;5.70;;;5.20;;
52576;SDS011;38469;53.562;10.048;2023-06-26T07:29:08;6.65;;;5.13;;
52576;SDS011;38469;53.562;10.048;2023-06-26T07:31:35;5.95;;;4.78;;
52576;SDS011;38469;53.562;10.048;2023-06-26T07:34:01;5.47;;;4.47;;
52576;SDS011;38469;53.562;10.048;2023-06-26T07:36:28;4.97;;;4.57;;
52576;SDS011;38469;53.562;10.048;2023-06-26T07:38:54;5.40;;;4.90;;
52576;SDS011;38469;53.562;10.048;2023-06-26T07:41:22;6.47;;;5.13;;
52576;SDS011;38469;53.562;10.048;2023-06-26T07:43:48;5.68;;;5.10;;
52576;SDS011;38469;53.562;10.048;2023-06-26T07:46:15;5.10;;;4.60;;
52576;SDS011;38469;53.562;10.048;2023-06-26T07:48:41;5.40;;;4.90;;
52576;SDS011;38469;53.562;10.048;2023-06-26T07:51:08;5.28;;;4.78;;
52576;SDS011;38469;53.562;10.048;2023-06-26T07:53:34;5.68;;;5.18;;
52576;SDS011;38469;53.562;10.048;2023-06-26T07:56:00;6.72;;;5.43;;
52576;SDS011;38469;53.562;10.048;2023-06-26T07:58:28;9.70;;;5.30;;
52576;SDS011;38469;53.562;10.048;2023-06-26T08:00:55;7.28;;;5.50;;
52576;SDS011;38469;53.562;10.048;2023-06-26T08:03:21;6.53;;;5.97;;
52576;SDS011;38469;53.562;10.048;2023-06-26T08:05:48;6.15;;;5.65;;
52576;SDS011;38469;53.562;10.048;2023-06-26T08:08:15;7.78;;;5.63;;
52576;SDS011;38469;53.562;10.048;2023-06-26T08:10:41;6.88;;;5.93;;
52576;SDS011;38469;53.562;10.048;2023-06-26T08:13:08;6.07;;;5.47;;
52576;SDS011;38469;53.562;10.048;2023-06-26T08:15:36;6.45;;;5.30;;
52576;SDS011;38469;53.562;10.048;2023-06-26T08:18:02;7.25;;;6.40;;
52576;SDS011;38469;53.562;10.048;2023-06-26T08:20:29;6.15;;;5.63;;
52576;SDS011;38469;53.562;10.048;2023-06-26T08:22:55;7.22;;;6.13;;
52576;SDS011;38469;53.562;10.048;2023-06-26T08:25:22;8.45;;;5.90;;
52576;SDS011;38469;53.562;10.048;2023-06-26T08:27:48;7.13;;;6.43;;
52576;SDS011;38469;53.562;10.048;2023-06-26T08:30:17;6.40;;;5.38;;
52576;SDS011;38469;53.562;10.048;2023-06-26T08:32:45;6.20;;;5.60;;
52576;SDS011;38469;53.562;10.048;2023-06-26T08:35:11;10.77;;;6.18;;
52576;SDS011;38469;53.562;10.048;2023-06-26T08:37:38;6.90;;;5.95;;
52576;SDS011;38469;53.562;10.048;2023-06-26T08:40:05;7.00;;;5.80;;
52576;SDS011;38469;53.562;10.048;2023-06-26T08:42:33;6.00;;;5.53;;
52576;SDS011;38469;53.562;10.048;2023-06-26T08:45:00;6.93;;;6.20;;
52576;SDS011;38469;53.562;10.048;2023-06-26T08:47:26;9.75;;;6.10;;
52576;SDS011;38469;53.562;10.048;2023-06-26T08:49:56;6.82;;;5.95;;
52576;SDS011;38469;53.562;10.048;2023-06-26T08:52:30;9.48;;;6.25;;
52576;SDS011;38469;53.562;10.048;2023-06-26T08:54:59;6.63;;;6.03;;
52576;SDS011;38469;53.562;10.048;2023-06-26T08:57:28;7.10;;;6.38;;
52576;SDS011;38469;53.562;10.048;2023-06-26T08:59:57;6.95;;;5.85;;
52576;SDS011;38469;53.562;10.048;2023-06-26T09:02:24;7.00;;;6.35;;
52576;SDS011;38469;53.562;10.048;2023-06-26T09:04:51;7.85;;;6.07;;
52576;SDS011;38469;53.562;10.048;2023-06-26T09:07:19;9.60;;;6.68;;
52576;SDS011;38469;53.562;10.048;2023-06-26T09:09:45;6.97;;;6.38;;
52576;SDS011;38469;53.562;10.048;2023-06-26T09:12:12;8.75;;;6.43;;
52576;SDS011;38469;53.562;10.048;2023-06-26T09:14:39;7.70;;;5.95;;
52576;SDS011;38469;53.562;10.048;2023-06-26T09:17:06;15.48;;;7.75;;
52576;SDS011;38469;53.562;10.048;2023-06-26T09:19:32;8.73;;;7.40;;
52576;SDS011;38469;53.562;10.048;2023-06-26T09:22:01;19.67;;;8.85;;
52576;SDS011;38469;53.562;10.048;2023-06-26T09:24:29;9.05;;;8.20;;
52576;SDS011;38469;53.562;10.048;2023-06-26T09:26:56;10.68;;;7.85;;
52576;SDS011;38469;53.562;10.048;2023-06-26T09:29:23;14.60;;;8.25;;
52576;SDS011;38469;53.562;10.048;2023-06-26T09:31:52;10.32;;;8.77;;
52576;SDS011;38469;53.562;10.048;2023-06-26T09:34:19;9.77;;;8.80;;
52576;SDS011;38469;53.562;10.048;2023-06-26T09:36:45;12.98;;;9.30;;
52576;SDS011;38469;53.562;10.048;2023-06-26T09:39:13;11.70;;;8.90;;
52576;SDS011;38469;53.562;10.048;2023-06-26T09:41:42;16.88;;;9.18;;
52576;SDS011;38469;53.562;10.048;2023-06-26T09:44:10;9.90;;;8.90;;
52576;SDS011;38469;53.562;10.048;2023-06-26T09:46:38;14.65;;;8.65;;
52576;SDS011;38469;53.562;10.048;2023-06-26T09:49:05;12.35;;;9.15;;
52576;SDS011;38469;53.562;10.048;2023-06-26T09:51:33;10.10;;;8.95;;
52576;SDS011;38469;53.562;10.048;2023-06-26T09:54:00;14.40;;;9.30;;
52576;SDS011;38469;53.562;10.048;2023-06-26T09:56:27;10.82;;;9.73;;
52576;SDS011;38469;53.562;10.048;2023-06-26T09:58:56;15.93;;;9.52;;
52576;SDS011;38469;53.562;10.048;2023-06-26T10:01:24;10.68;;;9.57;;
52576;SDS011;38469;53.562;10.048;2023-06-26T10:03:51;15.18;;;9.48;;
52576;SDS011;38469;53.562;10.048;2023-06-26T10:06:18;10.50;;;9.07;;
52576;SDS011;38469;53.562;10.048;2023-06-26T10:08:48;10.75;;;9.35;;
52576;SDS011;38469;53.562;10.048;2023-06-26T10:11:16;18.60;;;12.38;;
52576;SDS011;38469;53.562;10.048;2023-06-26T10:13:47;13.15;;;10.95;;
52576;SDS011;38469;53.562;10.048;2023-06-26T10:16:20;11.82;;;10.60;;
52576;SDS011;38469;53.562;10.048;2023-06-26T10:18:52;20.80;;;11.45;;
52576;SDS011;38469;53.562;10.048;2023-06-26T10:21:19;15.23;;;12.77;;
52576;SDS011;38469;53.562;10.048;2023-06-26T10:23:48;17.73;;;12.80;;
52576;SDS011;38469;53.562;10.048;2023-06-26T10:26:16;17.85;;;13.68;;
52576;SDS011;38469;53.562;10.048;2023-06-26T10:28:45;16.73;;;13.52;;
52576;SDS011;38469;53.562;10.048;2023-06-26T10:31:17;17.27;;;12.18;;
52576;SDS011;38469;53.562;10.048;2023-06-26T10:33:49;14.50;;;11.70;;
52576;SDS011;38469;53.562;10.048;2023-06-26T10:36:16;20.00;;;12.45;;
52576;SDS011;38469;53.562;10.048;2023-06-26T10:38:48;19.10;;;12.57;;
52576;SDS011;38469;53.562;10.048;2023-06-26T10:41:15;15.52;;;11.30;;
52576;SDS011;38469;53.562;10.048;2023-06-26T10:43:45;16.65;;;11.00;;
52576;SDS011;38469;53.562;10.048;2023-06-26T10:46:15;13.20;;;11.43;;
52576;SDS011;38469;53.562;10.048;2023-06-26T10:48:57;16.75;;;11.65;;
52576;SDS011;38469;53.562;10.048;2023-06-26T10:51:24;13.30;;;9.93;;
52576;SDS011;38469;53.562;10.048;2023-06-26T10:53:53;12.07;;;8.95;;
52576;SDS011;38469;53.562;10.048;2023-06-26T10:56:20;13.55;;;8.88;;
52576;SDS011;38469;53.562;10.048;2023-06-26T10:58:47;10.00;;;8.82;;
52576;SDS011;38469;53.562;10.048;2023-06-26T11:01:14;10.70;;;9.00;;
52576;SDS011;38469;53.562;10.048;2023-06-26T11:03:44;11.68;;;9.48;;
52576;SDS011;38469;53.562;10.048;2023-06-26T11:06:15;11.15;;;9.48;;
52576;SDS011;38469;53.562;10.048;2023-06-26T11:08:44;18.15;;;10.52;;
52576;SDS011;38469;53.562;10.048;2023-06-26T11:11:11;14.68;;;9.70;;
52576;SDS011;38469;53.562;10.048;2023-06-26T11:13:37;11.35;;;9.00;;
52576;SDS011;38469;53.562;10.048;2023-06-26T11:16:05;11.75;;;9.55;;
52576;SDS011;38469;53.562;10.048;2023-06-26T11:18:32;15.65;;;9.82;;
52576;SDS011;38469;53.562;10.048;2023-06-26T11:21:04;13.05;;;7.97;;
52576;SDS011;38469;53.562;10.048;2023-06-26T11:23:32;10.48;;;7.25;;
52576;SDS011;38469;53.562;10.048;2023-06-26T11:26:12;8.25;;;7.10;;
52576;SDS011;38469;53.562;10.048;2023-06-26T11:28:41;12.32;;;6.95;;
52576;SDS011;38469;53.562;10.048;2023-06-26T11:31:23;11.60;;;6.40;;
52576;SDS011;38469;53.562;10.048;2023-06-26T11:33:50;12.25;;;6.25;;
52576;SDS011;38469;53.562;10.048;2023-06-26T11:36:16;16.70;;;6.20;;
52576;SDS011;38469;53.562;10.048;2023-06-26T11:38:44;8.10;;;5.95;;
52576;SDS011;38469;53.562;10.048;2023-06-26T11:41:16;14.18;;;6.43;;
52576;SDS011;38469;53.562;10.048;2023-06-26T11:43:43;10.32;;;5.40;;
52576;SDS011;38469;53.562;10.048;2023-06-26T11:46:09;12.43;;;5.22;;
52576;SDS011;38469;53.562;10.048;2023-06-26T11:48:36;16.13;;;4.75;;
52576;SDS011;38469;53.562;10.048;2023-06-26T11:51:03;10.00;;;4.22;;
52576;SDS011;38469;53.562;10.048;2023-06-26T11:53:30;12.23;;;4.50;;
52576;SDS011;38469;53.562;10.048;2023-06-26T11:55:58;10.38;;;4.18;;
52576;SDS011;38469;53.562;10.048;2023-06-26T11:58:26;7.05;;;3.45;;
52576;SDS011;38469;53.562;10.048;2023-06-26T12:00:53;7.60;;;3.53;;
52576;SDS011;38469;53.562;10.048;2023-06-26T12:03:21;8.10;;;3.22;;
52576;SDS011;38469;53.562;10.048;2023-06-26T12:05:48;6.88;;;2.95;;
52576;SDS011;38469;53.562;10.048;2023-06-26T12:08:16;7.90;;;3.05;;
52576;SDS011;38469;53.562;10.048;2023-06-26T12:10:43;6.60;;;2.65;;
52576;SDS011;38469;53.562;10.048;2023-06-26T12:13:12;9.70;;;2.75;;
52576;SDS011;38469;53.562;10.048;2023-06-26T12:15:39;6.68;;;2.53;;
52576;SDS011;38469;53.562;10.048;2023-06-26T12:18:07;9.77;;;2.80;;
52576;SDS011;38469;53.562;10.048;2023-06-26T12:20:39;6.90;;;2.63;;
52576;SDS011;38469;53.562;10.048;2023-06-26T12:23:11;9.05;;;2.67;;
52576;SDS011;38469;53.562;10.048;2023-06-26T12:25:38;9.75;;;2.90;;
52576;SDS011;38469;53.562;10.048;2023-06-26T12:28:15;12.52;;;2.85;;
52576;SDS011;38469;53.562;10.048;2023-06-26T12:30:45;10.00;;;3.15;;
52576;SDS011;38469;53.562;10.048;2023-06-26T12:33:12;5.93;;;2.40;;
52576;SDS011;38469;53.562;10.048;2023-06-26T12:35:40;8.68;;;2.88;;
52576;SDS011;38469;53.562;10.048;2023-06-26T12:38:07;9.65;;;2.88;;
52576;SDS011;38469;53.562;10.048;2023-06-26T12:40:35;7.53;;;2.30;;
52576;SDS011;38469;53.562;10.048;2023-06-26T12:43:11;10.13;;;2.60;;
52576;SDS011;38469;53.562;10.048;2023-06-26T12:45:39;9.82;;;2.47;;
52576;SDS011;38469;53.562;10.048;2023-06-26T12:48:07;10.23;;;2.28;;
52576;SDS011;38469;53.562;10.048;2023-06-26T12:50:43;7.35;;;3.15;;
52576;SDS011;38469;53.562;10.048;2023-06-26T12:53:10;3.97;;;2.00;;
52576;SDS011;38469;53.562;10.048;2023-06-26T12:55:37;5.32;;;2.40;;
52576;SDS011;38469;53.562;10.048;2023-06-26T12:58:03;4.55;;;1.60;;
52576;SDS011;38469;53.562;10.048;2023-06-26T13:00:30;7.38;;;2.20;;
52576;SDS011;38469;53.562;10.048;2023-06-26T13:02:58;7.35;;;1.83;;
52576;SDS011;38469;53.562;10.048;2023-06-26T13:05:24;8.57;;;2.60;;
52576;SDS011;38469;53.562;10.048;2023-06-26T13:07:51;6.93;;;1.95;;
52576;SDS011;38469;53.562;10.048;2023-06-26T13:10:18;8.40;;;2.30;;
52576;SDS011;38469;53.562;10.048;2023-06-26T13:12:45;6.57;;;1.90;;
52576;SDS011;38469;53.562;10.048;2023-06-26T13:15:11;9.88;;;3.08;;
52576;SDS011;38469;53.562;10.048;2023-06-26T13:17:38;6.97;;;2.88;;
52576;SDS011;38469;53.562;10.048;2023-06-26T13:20:07;9.07;;;1.77;;
52576;SDS011;38469;53.562;10.048;2023-06-26T13:22:34;7.93;;;2.25;;
52576;SDS011;38469;53.562;10.048;2023-06-26T13:25:01;4.78;;;1.80;;
52576;SDS011;38469;53.562;10.048;2023-06-26T13:27:27;5.13;;;1.83;;
52576;SDS011;38469;53.562;10.048;2023-06-26T13:29:54;2.70;;;1.60;;
52576;SDS011;38469;53.562;10.048;2023-06-26T13:32:20;5.32;;;1.75;;
52576;SDS011;38469;53.562;10.048;2023-06-26T13:34:47;5.78;;;1.52;;
52576;SDS011;38469;53.562;10.048;2023-06-26T13:37:15;5.18;;;1.77;;
52576;SDS011;38469;53.562;10.048;2023-06-26T13:39:41;4.80;;;1.80;;
52576;SDS011;38469;53.562;10.048;2023-06-26T13:42:14;6.80;;;1.77;;
52576;SDS011;38469;53.562;10.048;2023-06-26T13:44:41;7.93;;;1.75;;
52576;SDS011;38469;53.562;10.048;2023-06-26T13:47:07;6.18;;;1.83;;
52576;SDS011;38469;53.562;10.048;2023-06-26T13:49:34;8.32;;;2.08;;
52576;SDS011;38469;53.562;10.048;2023-06-26T13:52:00;6.50;;;1.98;;
52576;SDS011;38469;53.562;10.048;2023-06-26T13:54:28;3.13;;;1.55;;
52576;SDS011;38469;53.562;10.048;2023-06-26T13:56:55;3.63;;;1.80;;
52576;SDS011;38469;53.562;10.048;2023-06-26T13:59:22;6.05;;;1.60;;
52576;SDS011;38469;53.562;10.048;2023-06-26T14:01:50;4.22;;;1.60;;
52576;SDS011;38469;53.562;10.048;2023-06-26T14:04:17;3.65;;;1.45;;
52576;SDS011;38469;53.562;10.048;2023-06-26T14:06:43;4.18;;;1.27;;
52576;SDS011;38469;53.562;10.048;2023-06-26T14:09:10;4.40;;;1.58;;
52576;SDS011;38469;53.562;10.048;2023-06-26T14:11:38;4.50;;;1.60;;
52576;SDS011;38469;53.562;10.048;2023-06-26T14:14:05;8.95;;;1.70;;
52576;SDS011;38469;53.562;10.048;2023-06-26T14:16:32;4.10;;;1.80;;
52576;SDS011;38469;53.562;10.048;2023-06-26T14:18:58;5.50;;;1.40;;
52576;SDS011;38469;53.562;10.048;2023-06-26T14:21:25;3.47;;;1.58;;
52576;SDS011;38469;53.562;10.048;2023-06-26T14:23:52;5.43;;;1.58;;
52576;SDS011;38469;53.562;10.048;2023-06-26T14:26:19;2.22;;;1.48;;